sensor_id;sensor_type;location;lat;lon;timestamp;pressure;altitude;pressure_sealevel;temperature;humidity
46722;BME280;32455;43.430;23.136;2023-05-23T00:02:08;97954.69;;;14.60;100.00
46722;BME280;32455;43.430;23.136;2023-05-23T00:04:53;97959.81;;;14.57;100.00
46722;BME280;32455;43.430;23.136;2023-05-23T00:07:43;97961.88;;;14.49;100.00
46722;BME280;32455;43.430;23.136;2023-05-23T00:10:31;97949.28;;;14.60;100.00
46722;BME280;32455;43.430;23.136;2023-05-23T00:13:16;97955.66;;;14.76;100.00
46722;BME280;32455;43.430;23.136;2023-05-23T00:16:02;97962.84;;;14.87;100.00
46722;BME280;32455;43.430;23.136;2023-05-23T00:18:48;97952.50;;;14.84;100.00
46722;BME280;32455;43.430;23.136;2023-05-23T00:21:35;97957.66;;;14.86;100.00
46722;BME280;32455;43.430;23.136;2023-05-23T00:24:20;97957.59;;;14.81;100.00
46722;BME280;32455;43.430;23.136;2023-05-23T00:27:06;97964.81;;;14.70;100.00
46722;BME280;32455;43.430;23.136;2023-05-23T00:29:51;97955.31;;;14.67;100.00
46722;BME280;32455;43.430;23.136;2023-05-23T00:32:36;97954.34;;;14.78;100.00
46722;BME280;32455;43.430;23.136;2023-05-23T00:35:22;97966.25;;;14.77;100.00
46722;BME280;32455;43.430;23.136;2023-05-23T00:38:10;97959.13;;;14.71;100.00
46722;BME280;32455;43.430;23.136;2023-05-23T00:40:55;97966.94;;;14.68;100.00
46722;BME280;32455;43.430;23.136;2023-05-23T00:43:41;97955.56;;;14.44;100.00
46722;BME280;32455;43.430;23.136;2023-05-23T00:46:26;97973.88;;;14.59;100.00
46722;BME280;32455;43.430;23.136;2023-05-23T00:49:12;97961.66;;;14.12;100.00
46722;BME280;32455;43.430;23.136;2023-05-23T00:51:58;97965.44;;;14.33;100.00
46722;BME280;32455;43.430;23.136;2023-05-23T00:54:45;97962.78;;;14.16;100.00
46722;BME280;32455;43.430;23.136;2023-05-23T00:57:30;97965.06;;;14.24;100.00
46722;BME280;32455;43.430;23.136;2023-05-23T01:00:18;97969.00;;;14.39;100.00
46722;BME280;32455;43.430;23.136;2023-05-23T01:03:04;97955.97;;;14.31;100.00
46722;BME280;32455;43.430;23.136;2023-05-23T01:05:50;97967.22;;;14.22;100.00
46722;BME280;32455;43.430;23.136;2023-05-23T01:08:35;97964.22;;;14.02;100.00
46722;BME280;32455;43.430;23.136;2023-05-23T01:15:10;97954.72;;;13.61;100.00
46722;BME280;32455;43.430;23.136;2023-05-23T01:18:17;97956.63;;;13.60;100.00
46722;BME280;32455;43.430;23.136;2023-05-23T01:21:11;97950.81;;;13.35;100.00
46722;BME280;32455;43.430;23.136;2023-05-23T01:24:16;97954.84;;;13.32;100.00
46722;BME280;32455;43.430;23.136;2023-05-23T01:30:11;97951.00;;;13.45;100.00
46722;BME280;32455;43.430;23.136;2023-05-23T01:32:57;97950.16;;;13.44;100.00
46722;BME280;32455;43.430;23.136;2023-05-23T01:35:44;97949.13;;;13.45;100.00
46722;BME280;32455;43.430;23.136;2023-05-23T01:38:30;97947.31;;;13.51;100.00
46722;BME280;32455;43.430;23.136;2023-05-23T01:41:15;97940.41;;;13.60;100.00
46722;BME280;32455;43.430;23.136;2023-05-23T01:44:01;97940.91;;;13.57;100.00
46722;BME280;32455;43.430;23.136;2023-05-23T01:46:47;97942.16;;;13.49;100.00
46722;BME280;32455;43.430;23.136;2023-05-23T01:49:33;97947.63;;;13.55;100.00
46722;BME280;32455;43.430;23.136;2023-05-23T01:52:20;97941.06;;;13.00;100.00
46722;BME280;32455;43.430;23.136;2023-05-23T01:55:07;97940.16;;;12.94;100.00
46722;BME280;32455;43.430;23.136;2023-05-23T01:57:55;97943.13;;;12.64;100.00
46722;BME280;32455;43.430;23.136;2023-05-23T02:00:41;97947.44;;;12.65;100.00
46722;BME280;32455;43.430;23.136;2023-05-23T02:03:27;97931.81;;;12.50;100.00
46722;BME280;32455;43.430;23.136;2023-05-23T02:06:12;97954.50;;;12.83;100.00
46722;BME280;32455;43.430;23.136;2023-05-23T02:08:57;97945.44;;;12.72;100.00
46722;BME280;32455;43.430;23.136;2023-05-23T02:11:43;97956.22;;;12.72;100.00
46722;BME280;32455;43.430;23.136;2023-05-23T02:14:28;97944.41;;;12.62;100.00
46722;BME280;32455;43.430;23.136;2023-05-23T02:17:13;97939.66;;;12.52;100.00
46722;BME280;32455;43.430;23.136;2023-05-23T02:20:00;97953.38;;;12.50;100.00
46722;BME280;32455;43.430;23.136;2023-05-23T02:22:45;97950.09;;;12.77;100.00
46722;BME280;32455;43.430;23.136;2023-05-23T02:25:31;97950.09;;;12.77;100.00
46722;BME280;32455;43.430;23.136;2023-05-23T02:28:16;97953.41;;;12.67;100.00
46722;BME280;32455;43.430;23.136;2023-05-23T02:31:02;97962.56;;;12.66;100.00
46722;BME280;32455;43.430;23.136;2023-05-23T02:33:47;97971.25;;;12.68;100.00
46722;BME280;32455;43.430;23.136;2023-05-23T02:36:33;97960.94;;;12.65;100.00
46722;BME280;32455;43.430;23.136;2023-05-23T02:39:20;97954.75;;;12.53;100.00
46722;BME280;32455;43.430;23.136;2023-05-23T02:42:06;97959.59;;;12.51;100.00
46722;BME280;32455;43.430;23.136;2023-05-23T02:44:52;97947.41;;;12.48;100.00
46722;BME280;32455;43.430;23.136;2023-05-23T02:47:37;97946.88;;;12.35;100.00
46722;BME280;32455;43.430;23.136;2023-05-23T02:50:22;97947.38;;;12.20;100.00
46722;BME280;32455;43.430;23.136;2023-05-23T02:53:07;97948.69;;;12.06;100.00
46722;BME280;32455;43.430;23.136;2023-05-23T02:55:53;97931.47;;;12.07;100.00
46722;BME280;32455;43.430;23.136;2023-05-23T02:58:38;97938.84;;;12.11;100.00
46722;BME280;32455;43.430;23.136;2023-05-23T03:01:23;97944.56;;;12.15;100.00
46722;BME280;32455;43.430;23.136;2023-05-23T03:04:09;97941.75;;;12.21;100.00
46722;BME280;32455;43.430;23.136;2023-05-23T03:06:54;97943.72;;;12.38;100.00
46722;BME280;32455;43.430;23.136;2023-05-23T03:09:39;97950.34;;;12.47;100.00
46722;BME280;32455;43.430;23.136;2023-05-23T03:12:24;97942.00;;;12.48;100.00
46722;BME280;32455;43.430;23.136;2023-05-23T03:15:09;97943.19;;;12.41;100.00
46722;BME280;32455;43.430;23.136;2023-05-23T03:17:54;97948.66;;;12.29;100.00
46722;BME280;32455;43.430;23.136;2023-05-23T03:20:39;97941.19;;;12.48;100.00
46722;BME280;32455;43.430;23.136;2023-05-23T03:23:24;97953.66;;;12.66;100.00
46722;BME280;32455;43.430;23.136;2023-05-23T03:26:10;97956.22;;;12.72;100.00
46722;BME280;32455;43.430;23.136;2023-05-23T03:28:55;97956.31;;;12.49;100.00
46722;BME280;32455;43.430;23.136;2023-05-23T03:31:41;97970.88;;;12.36;100.00
46722;BME280;32455;43.430;23.136;2023-05-23T03:34:26;97974.25;;;12.43;100.00
46722;BME280;32455;43.430;23.136;2023-05-23T03:37:11;97967.72;;;12.39;100.00
46722;BME280;32455;43.430;23.136;2023-05-23T03:39:56;97979.22;;;12.23;100.00
46722;BME280;32455;43.430;23.136;2023-05-23T03:42:42;97968.31;;;12.30;100.00
46722;BME280;32455;43.430;23.136;2023-05-23T03:45:27;97972.38;;;12.44;100.00
46722;BME280;32455;43.430;23.136;2023-05-23T03:48:13;97975.25;;;12.54;100.00
46722;BME280;32455;43.430;23.136;2023-05-23T03:50:58;97978.38;;;12.63;100.00
46722;BME280;32455;43.430;23.136;2023-05-23T03:53:43;97973.13;;;12.68;100.00
46722;BME280;32455;43.430;23.136;2023-05-23T03:56:29;97985.22;;;12.82;100.00
46722;BME280;32455;43.430;23.136;2023-05-23T03:59:14;97986.22;;;12.93;100.00
46722;BME280;32455;43.430;23.136;2023-05-23T04:02:00;97980.59;;;12.94;100.00
46722;BME280;32455;43.430;23.136;2023-05-23T04:04:45;97990.34;;;13.12;100.00
46722;BME280;32455;43.430;23.136;2023-05-23T04:07:31;97985.03;;;13.17;100.00
46722;BME280;32455;43.430;23.136;2023-05-23T04:10:18;97996.16;;;13.21;100.00
46722;BME280;32455;43.430;23.136;2023-05-23T04:13:04;98002.03;;;13.30;100.00
46722;BME280;32455;43.430;23.136;2023-05-23T04:15:50;97992.94;;;13.36;100.00
46722;BME280;32455;43.430;23.136;2023-05-23T04:18:36;98004.66;;;13.58;100.00
46722;BME280;32455;43.430;23.136;2023-05-23T04:21:22;98013.97;;;13.67;100.00
46722;BME280;32455;43.430;23.136;2023-05-23T04:24:08;98003.78;;;13.74;100.00
46722;BME280;32455;43.430;23.136;2023-05-23T04:26:53;98014.13;;;13.77;100.00
46722;BME280;32455;43.430;23.136;2023-05-23T04:29:40;98020.50;;;13.88;100.00
46722;BME280;32455;43.430;23.136;2023-05-23T04:32:26;98021.88;;;13.74;100.00
46722;BME280;32455;43.430;23.136;2023-05-23T04:35:11;98010.94;;;13.64;100.00
46722;BME280;32455;43.430;23.136;2023-05-23T04:37:56;98007.56;;;13.73;100.00
46722;BME280;32455;43.430;23.136;2023-05-23T04:40:41;98008.16;;;13.75;100.00
46722;BME280;32455;43.430;23.136;2023-05-23T04:43:26;98013.44;;;13.87;100.00
46722;BME280;32455;43.430;23.136;2023-05-23T04:46:12;97999.63;;;14.22;100.00
46722;BME280;32455;43.430;23.136;2023-05-23T04:48:57;98007.50;;;14.46;100.00
46722;BME280;32455;43.430;23.136;2023-05-23T04:51:43;97992.75;;;14.53;100.00
46722;BME280;32455;43.430;23.136;2023-05-23T04:54:28;97998.56;;;14.67;100.00
46722;BME280;32455;43.430;23.136;2023-05-23T04:57:13;97996.56;;;14.80;100.00
46722;BME280;32455;43.430;23.136;2023-05-23T04:59:59;97996.50;;;15.01;100.00
46722;BME280;32455;43.430;23.136;2023-05-23T05:02:45;97997.25;;;15.24;100.00
46722;BME280;32455;43.430;23.136;2023-05-23T05:05:30;98006.59;;;15.38;100.00
46722;BME280;32455;43.430;23.136;2023-05-23T05:08:15;98005.28;;;15.46;100.00
46722;BME280;32455;43.430;23.136;2023-05-23T05:11:03;97998.38;;;15.60;100.00
46722;BME280;32455;43.430;23.136;2023-05-23T05:13:49;97986.03;;;15.69;100.00
46722;BME280;32455;43.430;23.136;2023-05-23T05:16:34;97989.38;;;15.82;100.00
46722;BME280;32455;43.430;23.136;2023-05-23T05:19:19;97997.09;;;16.05;100.00
46722;BME280;32455;43.430;23.136;2023-05-23T05:22:05;98000.69;;;16.21;100.00
46722;BME280;32455;43.430;23.136;2023-05-23T05:24:51;97995.31;;;16.26;100.00
46722;BME280;32455;43.430;23.136;2023-05-23T05:27:37;97990.66;;;16.21;100.00
46722;BME280;32455;43.430;23.136;2023-05-23T05:30:23;97990.22;;;16.40;100.00
46722;BME280;32455;43.430;23.136;2023-05-23T05:33:08;98000.31;;;16.55;100.00
46722;BME280;32455;43.430;23.136;2023-05-23T05:35:54;97999.19;;;16.45;100.00
46722;BME280;32455;43.430;23.136;2023-05-23T05:38:39;98012.75;;;16.45;100.00
46722;BME280;32455;43.430;23.136;2023-05-23T05:41:24;98009.78;;;16.47;100.00
46722;BME280;32455;43.430;23.136;2023-05-23T05:44:11;98013.59;;;16.51;100.00
46722;BME280;32455;43.430;23.136;2023-05-23T05:46:56;98019.91;;;16.72;100.00
46722;BME280;32455;43.430;23.136;2023-05-23T05:49:42;98026.50;;;16.91;100.00
46722;BME280;32455;43.430;23.136;2023-05-23T05:52:27;98020.31;;;17.06;100.00
46722;BME280;32455;43.430;23.136;2023-05-23T05:55:13;98023.53;;;16.93;100.00
46722;BME280;32455;43.430;23.136;2023-05-23T05:57:58;98018.91;;;16.83;100.00
46722;BME280;32455;43.430;23.136;2023-05-23T06:00:44;98027.06;;;16.98;100.00
46722;BME280;32455;43.430;23.136;2023-05-23T06:03:29;98028.75;;;17.15;100.00
46722;BME280;32455;43.430;23.136;2023-05-23T06:06:15;98005.97;;;17.36;100.00
46722;BME280;32455;43.430;23.136;2023-05-23T06:09:00;98019.53;;;17.46;100.00
46722;BME280;32455;43.430;23.136;2023-05-23T06:11:46;98021.72;;;17.44;100.00
46722;BME280;32455;43.430;23.136;2023-05-23T06:14:31;98016.84;;;17.62;100.00
46722;BME280;32455;43.430;23.136;2023-05-23T06:17:16;98012.50;;;17.66;100.00
46722;BME280;32455;43.430;23.136;2023-05-23T06:20:00;98032.06;;;17.88;100.00
46722;BME280;32455;43.430;23.136;2023-05-23T06:22:45;98021.19;;;17.98;100.00
46722;BME280;32455;43.430;23.136;2023-05-23T06:25:31;98037.75;;;18.07;100.00
46722;BME280;32455;43.430;23.136;2023-05-23T06:28:16;98029.88;;;18.06;100.00
46722;BME280;32455;43.430;23.136;2023-05-23T06:31:02;98027.16;;;18.21;100.00
46722;BME280;32455;43.430;23.136;2023-05-23T06:33:47;98024.34;;;18.41;100.00
46722;BME280;32455;43.430;23.136;2023-05-23T06:36:33;98031.97;;;18.39;100.00
46722;BME280;32455;43.430;23.136;2023-05-23T06:39:18;98028.72;;;18.32;100.00
46722;BME280;32455;43.430;23.136;2023-05-23T06:42:03;98032.78;;;18.50;100.00
46722;BME280;32455;43.430;23.136;2023-05-23T06:44:48;98021.28;;;18.68;100.00
46722;BME280;32455;43.430;23.136;2023-05-23T06:47:34;98027.53;;;18.74;100.00
46722;BME280;32455;43.430;23.136;2023-05-23T06:50:19;98023.38;;;18.87;100.00
46722;BME280;32455;43.430;23.136;2023-05-23T06:53:05;98028.50;;;18.98;100.00
46722;BME280;32455;43.430;23.136;2023-05-23T06:55:50;98019.19;;;19.05;100.00
46722;BME280;32455;43.430;23.136;2023-05-23T06:58:35;98026.31;;;19.00;100.00
46722;BME280;32455;43.430;23.136;2023-05-23T07:01:21;98012.38;;;19.07;100.00
46722;BME280;32455;43.430;23.136;2023-05-23T07:04:06;98010.00;;;19.35;100.00
46722;BME280;32455;43.430;23.136;2023-05-23T07:06:52;98011.38;;;19.37;100.00
46722;BME280;32455;43.430;23.136;2023-05-23T07:09:37;98019.72;;;19.51;100.00
46722;BME280;32455;43.430;23.136;2023-05-23T07:12:23;98016.16;;;19.50;100.00
46722;BME280;32455;43.430;23.136;2023-05-23T07:15:10;98017.53;;;19.53;100.00
46722;BME280;32455;43.430;23.136;2023-05-23T07:17:55;98013.75;;;19.49;100.00
46722;BME280;32455;43.430;23.136;2023-05-23T07:20:40;98015.94;;;19.81;100.00
46722;BME280;32455;43.430;23.136;2023-05-23T07:23:26;98008.53;;;19.87;100.00
46722;BME280;32455;43.430;23.136;2023-05-23T07:26:11;98001.44;;;19.86;100.00
46722;BME280;32455;43.430;23.136;2023-05-23T07:28:57;97998.25;;;19.79;100.00
46722;BME280;32455;43.430;23.136;2023-05-23T07:31:43;97999.28;;;19.88;100.00
46722;BME280;32455;43.430;23.136;2023-05-23T07:34:28;97992.84;;;19.73;100.00
46722;BME280;32455;43.430;23.136;2023-05-23T07:37:14;97990.50;;;19.91;100.00
46722;BME280;32455;43.430;23.136;2023-05-23T07:40:00;97986.16;;;20.38;100.00
46722;BME280;32455;43.430;23.136;2023-05-23T07:42:45;97989.97;;;20.66;100.00
46722;BME280;32455;43.430;23.136;2023-05-23T07:45:30;98000.59;;;20.67;100.00
46722;BME280;32455;43.430;23.136;2023-05-23T07:48:16;98000.75;;;20.76;100.00
46722;BME280;32455;43.430;23.136;2023-05-23T07:51:02;98002.19;;;20.92;100.00
46722;BME280;32455;43.430;23.136;2023-05-23T07:53:47;97993.66;;;20.94;100.00
46722;BME280;32455;43.430;23.136;2023-05-23T07:56:32;98003.66;;;21.04;100.00
46722;BME280;32455;43.430;23.136;2023-05-23T07:59:17;98000.13;;;21.03;100.00
46722;BME280;32455;43.430;23.136;2023-05-23T08:02:02;97993.97;;;21.30;100.00
46722;BME280;32455;43.430;23.136;2023-05-23T08:04:47;98000.75;;;21.38;97.02
46722;BME280;32455;43.430;23.136;2023-05-23T08:07:31;97998.13;;;21.79;92.23
46722;BME280;32455;43.430;23.136;2023-05-23T08:10:17;97994.31;;;21.80;93.67
46722;BME280;32455;43.430;23.136;2023-05-23T08:13:02;97992.63;;;21.65;94.14
46722;BME280;32455;43.430;23.136;2023-05-23T08:15:55;97997.53;;;21.49;90.02
46722;BME280;32455;43.430;23.136;2023-05-23T08:18:41;97994.00;;;21.82;94.73
46722;BME280;32455;43.430;23.136;2023-05-23T08:21:26;97988.91;;;21.75;90.03
46722;BME280;32455;43.430;23.136;2023-05-23T08:24:12;97985.53;;;21.97;98.82
46722;BME280;32455;43.430;23.136;2023-05-23T08:26:57;97988.06;;;21.93;92.23
46722;BME280;32455;43.430;23.136;2023-05-23T08:29:42;97986.25;;;22.03;89.22
46722;BME280;32455;43.430;23.136;2023-05-23T08:32:27;97996.16;;;21.98;85.61
46722;BME280;32455;43.430;23.136;2023-05-23T08:35:12;97983.09;;;22.09;87.98
46722;BME280;32455;43.430;23.136;2023-05-23T08:37:57;97988.69;;;22.18;91.16
46722;BME280;32455;43.430;23.136;2023-05-23T08:40:49;97989.34;;;22.29;88.87
46722;BME280;32455;43.430;23.136;2023-05-23T08:43:37;97985.69;;;21.87;89.84
46722;BME280;32455;43.430;23.136;2023-05-23T08:46:22;97989.66;;;22.27;90.29
46722;BME280;32455;43.430;23.136;2023-05-23T08:49:09;98003.31;;;22.55;89.23
46722;BME280;32455;43.430;23.136;2023-05-23T08:52:00;97989.84;;;22.58;85.96
46722;BME280;32455;43.430;23.136;2023-05-23T08:54:47;97990.75;;;22.54;85.47
46722;BME280;32455;43.430;23.136;2023-05-23T08:57:33;97984.56;;;22.62;75.14
46722;BME280;32455;43.430;23.136;2023-05-23T09:00:20;97988.41;;;22.47;68.25
46722;BME280;32455;43.430;23.136;2023-05-23T09:03:08;97987.59;;;22.60;68.10
46722;BME280;32455;43.430;23.136;2023-05-23T09:05:56;97981.38;;;22.82;64.95
46722;BME280;32455;43.430;23.136;2023-05-23T09:08:41;97983.84;;;22.70;62.88
46722;BME280;32455;43.430;23.136;2023-05-23T09:11:30;97975.72;;;22.79;64.43
46722;BME280;32455;43.430;23.136;2023-05-23T09:14:17;97983.94;;;22.92;60.97
46722;BME280;32455;43.430;23.136;2023-05-23T09:17:03;97987.69;;;22.96;60.82
46722;BME280;32455;43.430;23.136;2023-05-23T09:19:48;97987.19;;;22.67;59.46
46722;BME280;32455;43.430;23.136;2023-05-23T09:22:33;97981.50;;;22.77;64.16
46722;BME280;32455;43.430;23.136;2023-05-23T09:25:18;97978.84;;;22.99;65.22
46722;BME280;32455;43.430;23.136;2023-05-23T09:28:03;97978.00;;;23.13;60.62
46722;BME280;32455;43.430;23.136;2023-05-23T09:31:00;97984.84;;;23.02;60.18
46722;BME280;32455;43.430;23.136;2023-05-23T09:33:47;97981.47;;;23.05;58.80
46722;BME280;32455;43.430;23.136;2023-05-23T09:36:33;97980.28;;;22.97;59.92
46722;BME280;32455;43.430;23.136;2023-05-23T09:39:18;97977.88;;;23.18;58.39
46722;BME280;32455;43.430;23.136;2023-05-23T09:42:04;97987.53;;;23.15;55.07
46722;BME280;32455;43.430;23.136;2023-05-23T09:44:50;97971.41;;;23.14;55.97
46722;BME280;32455;43.430;23.136;2023-05-23T09:47:35;97972.34;;;23.32;56.97
46722;BME280;32455;43.430;23.136;2023-05-23T09:50:20;97973.59;;;23.48;53.35
46722;BME280;32455;43.430;23.136;2023-05-23T09:53:06;97961.03;;;23.47;55.26
46722;BME280;32455;43.430;23.136;2023-05-23T09:55:52;97964.75;;;23.51;53.49
46722;BME280;32455;43.430;23.136;2023-05-23T09:58:39;97961.63;;;23.44;56.18
46722;BME280;32455;43.430;23.136;2023-05-23T10:01:28;97957.28;;;23.65;54.45
46722;BME280;32455;43.430;23.136;2023-05-23T10:04:20;97961.31;;;23.45;52.57
46722;BME280;32455;43.430;23.136;2023-05-23T10:07:13;97949.16;;;23.38;56.49
46722;BME280;32455;43.430;23.136;2023-05-23T10:10:02;97962.03;;;23.73;55.67
46722;BME280;32455;43.430;23.136;2023-05-23T10:12:50;97962.13;;;23.91;52.88
46722;BME280;32455;43.430;23.136;2023-05-23T10:15:40;97959.41;;;23.68;53.30
46722;BME280;32455;43.430;23.136;2023-05-23T10:18:28;97949.41;;;23.28;53.64
46722;BME280;32455;43.430;23.136;2023-05-23T10:21:18;97945.47;;;23.42;53.73
46722;BME280;32455;43.430;23.136;2023-05-23T10:24:08;97953.16;;;23.54;57.00
46722;BME280;32455;43.430;23.136;2023-05-23T10:26:55;97943.06;;;23.41;55.87
46722;BME280;32455;43.430;23.136;2023-05-23T10:29:41;97934.88;;;23.72;52.52
46722;BME280;32455;43.430;23.136;2023-05-23T10:32:27;97940.69;;;24.02;50.72
46722;BME280;32455;43.430;23.136;2023-05-23T10:35:28;97933.56;;;23.92;47.67
46722;BME280;32455;43.430;23.136;2023-05-23T10:41:32;97938.44;;;24.04;47.25
46722;BME280;32455;43.430;23.136;2023-05-23T10:44:28;97937.25;;;23.87;50.33
46722;BME280;32455;43.430;23.136;2023-05-23T10:47:25;97921.44;;;23.93;49.18
46722;BME280;32455;43.430;23.136;2023-05-23T10:50:12;97918.09;;;23.65;48.76
46722;BME280;32455;43.430;23.136;2023-05-23T10:53:03;97932.22;;;24.20;54.09
46722;BME280;32455;43.430;23.136;2023-05-23T10:55:49;97928.66;;;24.11;53.22
46722;BME280;32455;43.430;23.136;2023-05-23T10:58:40;97917.47;;;24.56;53.19
46722;BME280;32455;43.430;23.136;2023-05-23T11:01:26;97919.78;;;24.23;51.88
46722;BME280;32455;43.430;23.136;2023-05-23T11:04:11;97909.44;;;23.80;54.80
46722;BME280;32455;43.430;23.136;2023-05-23T11:06:57;97919.56;;;24.11;54.24
46722;BME280;32455;43.430;23.136;2023-05-23T11:10:11;97903.84;;;24.34;55.14
46722;BME280;32455;43.430;23.136;2023-05-23T11:13:05;97905.69;;;24.56;52.19
46722;BME280;32455;43.430;23.136;2023-05-23T11:15:51;97906.66;;;24.60;50.09
46722;BME280;32455;43.430;23.136;2023-05-23T11:18:36;97912.97;;;24.60;50.03
46722;BME280;32455;43.430;23.136;2023-05-23T11:21:22;97919.78;;;24.23;50.91
46722;BME280;32455;43.430;23.136;2023-05-23T11:24:08;97897.72;;;24.37;52.30
46722;BME280;32455;43.430;23.136;2023-05-23T11:26:58;97908.25;;;24.52;52.02
46722;BME280;32455;43.430;23.136;2023-05-23T11:32:52;97896.28;;;23.99;51.06
46722;BME280;32455;43.430;23.136;2023-05-23T11:35:48;97901.19;;;24.77;52.68
46722;BME280;32455;43.430;23.136;2023-05-23T11:38:35;97907.84;;;25.02;48.05
46722;BME280;32455;43.430;23.136;2023-05-23T11:41:21;97902.63;;;24.66;50.08
46722;BME280;32455;43.430;23.136;2023-05-23T11:44:12;97904.25;;;24.67;49.86
46722;BME280;32455;43.430;23.136;2023-05-23T11:47:00;97910.06;;;24.65;50.88
46722;BME280;32455;43.430;23.136;2023-05-23T11:49:46;97896.16;;;24.88;49.10
46722;BME280;32455;43.430;23.136;2023-05-23T11:52:32;97887.78;;;24.93;48.89
46722;BME280;32455;43.430;23.136;2023-05-23T11:55:19;97899.41;;;24.81;49.97
46722;BME280;32455;43.430;23.136;2023-05-23T11:58:06;97884.06;;;24.89;48.37
46722;BME280;32455;43.430;23.136;2023-05-23T12:00:51;97882.94;;;24.98;49.03
46722;BME280;32455;43.430;23.136;2023-05-23T12:03:47;97879.69;;;25.05;46.46
46722;BME280;32455;43.430;23.136;2023-05-23T12:06:32;97877.66;;;24.36;43.17
46722;BME280;32455;43.430;23.136;2023-05-23T12:09:18;97872.41;;;25.01;47.94
46722;BME280;32455;43.430;23.136;2023-05-23T12:12:02;97865.63;;;24.81;47.00
46722;BME280;32455;43.430;23.136;2023-05-23T12:14:47;97861.28;;;24.97;47.88
46722;BME280;32455;43.430;23.136;2023-05-23T12:17:32;97853.31;;;24.95;48.47
46722;BME280;32455;43.430;23.136;2023-05-23T12:20:19;97856.38;;;25.37;44.68
46722;BME280;32455;43.430;23.136;2023-05-23T12:23:04;97866.91;;;25.35;42.32
46722;BME280;32455;43.430;23.136;2023-05-23T12:25:51;97860.31;;;25.10;41.19
46722;BME280;32455;43.430;23.136;2023-05-23T12:28:41;97850.13;;;25.11;44.76
46722;BME280;32455;43.430;23.136;2023-05-23T12:31:27;97849.59;;;25.00;45.02
46722;BME280;32455;43.430;23.136;2023-05-23T12:34:13;97851.22;;;25.36;43.86
46722;BME280;32455;43.430;23.136;2023-05-23T12:37:00;97843.72;;;25.54;42.52
46722;BME280;32455;43.430;23.136;2023-05-23T12:39:47;97838.94;;;25.25;43.71
46722;BME280;32455;43.430;23.136;2023-05-23T12:42:49;97844.34;;;25.59;44.31
46722;BME280;32455;43.430;23.136;2023-05-23T12:45:38;97837.56;;;25.48;44.49
46722;BME280;32455;43.430;23.136;2023-05-23T12:48:23;97841.44;;;25.56;44.51
46722;BME280;32455;43.430;23.136;2023-05-23T12:51:09;97829.31;;;25.48;44.60
46722;BME280;32455;43.430;23.136;2023-05-23T12:53:54;97834.56;;;25.06;46.00
46722;BME280;32455;43.430;23.136;2023-05-23T12:56:41;97826.66;;;24.87;46.79
46722;BME280;32455;43.430;23.136;2023-05-23T12:59:27;97810.34;;;25.08;43.56
46722;BME280;32455;43.430;23.136;2023-05-23T13:02:12;97817.69;;;25.42;47.42
46722;BME280;32455;43.430;23.136;2023-05-23T13:04:58;97812.78;;;25.65;44.54
46722;BME280;32455;43.430;23.136;2023-05-23T13:07:43;97818.41;;;25.69;43.50
46722;BME280;32455;43.430;23.136;2023-05-23T13:10:29;97813.22;;;25.67;46.78
46722;BME280;32455;43.430;23.136;2023-05-23T13:13:14;97811.44;;;25.80;44.21
46722;BME280;32455;43.430;23.136;2023-05-23T13:15:59;97808.06;;;26.04;41.92
46722;BME280;32455;43.430;23.136;2023-05-23T13:18:45;97815.13;;;26.14;40.67
46722;BME280;32455;43.430;23.136;2023-05-23T13:21:30;97821.13;;;25.78;40.02
46722;BME280;32455;43.430;23.136;2023-05-23T13:24:16;97807.31;;;25.57;42.02
46722;BME280;32455;43.430;23.136;2023-05-23T13:27:02;97809.13;;;25.44;45.69
46722;BME280;32455;43.430;23.136;2023-05-23T13:29:47;97818.09;;;24.97;42.17
46722;BME280;32455;43.430;23.136;2023-05-23T13:32:31;97806.78;;;24.38;45.89
46722;BME280;32455;43.430;23.136;2023-05-23T13:35:17;97800.50;;;24.46;48.60
46722;BME280;32455;43.430;23.136;2023-05-23T13:38:02;97792.25;;;24.64;47.17
46722;BME280;32455;43.430;23.136;2023-05-23T13:40:47;97800.78;;;25.06;43.76
46722;BME280;32455;43.430;23.136;2023-05-23T13:43:35;97796.56;;;25.17;43.37
46722;BME280;32455;43.430;23.136;2023-05-23T13:46:20;97795.81;;;24.73;46.30
46722;BME280;32455;43.430;23.136;2023-05-23T13:49:06;97790.31;;;24.47;47.89
46722;BME280;32455;43.430;23.136;2023-05-23T13:51:51;97789.34;;;24.52;48.16
46722;BME280;32455;43.430;23.136;2023-05-23T13:54:36;97787.03;;;25.06;42.66
46722;BME280;32455;43.430;23.136;2023-05-23T13:57:22;97788.41;;;25.38;42.57
46722;BME280;32455;43.430;23.136;2023-05-23T14:00:08;97792.16;;;25.33;46.05
46722;BME280;32455;43.430;23.136;2023-05-23T14:02:54;97787.06;;;24.97;45.98
46722;BME280;32455;43.430;23.136;2023-05-23T14:05:38;97784.44;;;24.92;45.20
46722;BME280;32455;43.430;23.136;2023-05-23T14:08:25;97783.47;;;24.88;44.91
46722;BME280;32455;43.430;23.136;2023-05-23T14:11:11;97788.22;;;25.43;44.02
46722;BME280;32455;43.430;23.136;2023-05-23T14:13:56;97787.81;;;25.23;40.61
46722;BME280;32455;43.430;23.136;2023-05-23T14:16:41;97783.03;;;25.50;42.07
46722;BME280;32455;43.430;23.136;2023-05-23T14:19:26;97775.16;;;25.69;39.46
46722;BME280;32455;43.430;23.136;2023-05-23T14:22:11;97775.25;;;25.90;42.08
46722;BME280;32455;43.430;23.136;2023-05-23T14:24:57;97780.84;;;26.03;40.78
46722;BME280;32455;43.430;23.136;2023-05-23T14:27:43;97787.47;;;25.81;40.98
46722;BME280;32455;43.430;23.136;2023-05-23T14:30:29;97787.66;;;26.05;41.60
46722;BME280;32455;43.430;23.136;2023-05-23T14:33:14;97792.25;;;25.92;40.87
46722;BME280;32455;43.430;23.136;2023-05-23T14:35:59;97779.69;;;25.83;39.28
46722;BME280;32455;43.430;23.136;2023-05-23T14:38:45;97779.53;;;25.79;41.39